Penns Park, Pennsylvania
Current Conditions -  °F | °C
As of 3:54 PM on Sunday 23 Nov 2014 (Local Time) from KDYL Reporting Station
Clear Clear  
Wind Chill: 10°   Ceiling: Unl
Heat Index: 10°   Visibility: 10mi
Dew Point: -3°   Wind: 5mph
Humidity: 39%   Direction: 160°SSE
Pressure: 30.12"   Gusts: NA
Location:  40.27°N, 75°W
Report Text: KDYL 232054Z AUTO 16004KT 10SM CLR 10/M03 A3012 RMK AO2 SLP203 T01001033 55005
Loading
Personal Weather Stations






























Interactive Weather Map New forecast layout! Learn more

10-Day Weather Forecast

Advertisements
Track Severe Weather on mobile